createdAt,value
2023-02-19T00:00:20.928Z,61.33
2023-02-19T00:05:26.343Z,62.44
2023-02-19T00:10:32.093Z,63.16
2023-02-19T00:15:37.588Z,63.88
2023-02-19T00:20:42.938Z,65.24
2023-02-19T00:25:48.280Z,66.46
2023-02-19T00:30:53.760Z,66.50
2023-02-19T00:36:02.090Z,66.63
2023-02-19T00:41:22.159Z,66.91
2023-02-19T00:46:36.709Z,67.54
2023-02-19T00:51:42.117Z,66.64
2023-02-19T00:56:47.619Z,67.18
2023-02-19T01:01:53.150Z,66.86
2023-02-19T01:06:58.398Z,66.92
2023-02-19T01:12:03.736Z,66.73
2023-02-19T01:17:09.114Z,67.24
2023-02-19T01:22:14.499Z,67.34
2023-02-19T01:27:19.851Z,67.75
2023-02-19T01:32:25.249Z,67.34
2023-02-19T01:37:30.629Z,67.20
2023-02-19T01:42:35.944Z,67.08
2023-02-19T01:47:41.176Z,66.76
2023-02-19T01:52:46.519Z,67.30
2023-02-19T01:57:56.121Z,67.18
2023-02-19T02:03:02.347Z,67.29
2023-02-19T02:08:28.026Z,67.55
2023-02-19T02:13:35.667Z,67.42
2023-02-19T02:19:26.177Z,68.01
2023-02-19T02:25:00.276Z,67.31
2023-02-19T02:30:33.995Z,66.92
2023-02-19T02:35:51.605Z,67.11
2023-02-19T02:40:58.594Z,66.54
2023-02-19T02:46:04.473Z,66.81
2023-02-19T02:51:22.649Z,66.73
2023-02-19T02:56:41.956Z,66.59
2023-02-19T03:02:15.479Z,66.63
2023-02-19T03:07:21.494Z,67.52
2023-02-19T03:12:48.263Z,67.45
2023-02-19T03:18:22.397Z,66.85
2023-02-19T03:23:52.128Z,66.45
2023-02-19T03:29:18.401Z,65.63
2023-02-19T03:34:32.369Z,65.22
2023-02-19T03:39:46.467Z,64.40
2023-02-19T03:45:00.765Z,63.66
2023-02-19T03:50:11.522Z,63.40
2023-02-19T03:55:50.090Z,64.23
2023-02-19T04:01:24.521Z,64.31
2023-02-19T04:06:33.640Z,63.53
2023-02-19T04:11:41.403Z,63.91
2023-02-19T04:16:56.382Z,63.69
2023-02-19T04:22:05.316Z,64.11
2023-02-19T04:27:11.725Z,63.29
2023-02-19T04:32:16.991Z,63.06
2023-02-19T04:37:22.340Z,63.71
2023-02-19T04:42:27.802Z,63.53
2023-02-19T04:47:33.754Z,62.64
2023-02-19T04:52:39.848Z,62.44
2023-02-19T04:57:44.745Z,63.21
2023-02-19T05:02:50.135Z,61.88
2023-02-19T05:07:55.435Z,61.03
2023-02-19T05:13:00.814Z,60.41
2023-02-19T05:18:06.062Z,59.82
2023-02-19T05:23:11.371Z,59.67
2023-02-19T05:28:17.929Z,59.04
2023-02-19T05:33:26.103Z,58.61
2023-02-19T05:38:31.535Z,57.50
2023-02-19T05:43:37.419Z,57.09
2023-02-19T05:48:42.873Z,56.68
2023-02-19T05:53:49.622Z,56.73
2023-02-19T05:58:55.948Z,56.45
2023-02-19T06:04:01.597Z,57.12
2023-02-19T06:09:07.440Z,57.08
2023-02-19T06:14:14.665Z,57.09
2023-02-19T06:19:20.145Z,57.08
2023-02-19T06:24:25.436Z,57.09
2023-02-19T06:29:33.011Z,57.20
2023-02-19T06:34:38.454Z,58.38
2023-02-19T06:39:44.489Z,57.72
2023-02-19T06:44:50.088Z,58.32
2023-02-19T06:49:55.533Z,57.07
2023-02-19T06:55:00.857Z,56.98
2023-02-19T07:00:08.854Z,57.27
2023-02-19T07:05:14.236Z,56.46
2023-02-19T07:10:19.619Z,56.42
2023-02-19T07:15:24.935Z,56.49
2023-02-19T07:20:30.365Z,55.93
2023-02-19T07:25:35.690Z,54.42
2023-02-19T07:30:41.244Z,54.89
2023-02-19T07:35:51.203Z,54.97
2023-02-19T07:40:58.816Z,54.44
2023-02-19T07:46:05.812Z,54.45
2023-02-19T07:51:19.567Z,54.27
2023-02-19T07:56:25.121Z,53.32
2023-02-19T08:01:49.937Z,53.04
2023-02-19T08:06:55.385Z,53.03
2023-02-19T08:12:20.342Z,52.40
2023-02-19T08:17:25.746Z,52.75
2023-02-19T08:22:31.240Z,51.77
2023-02-19T08:27:36.638Z,51.35
2023-02-19T08:32:41.894Z,51.59
2023-02-19T08:37:48.288Z,51.73
2023-02-19T08:42:54.076Z,51.25
2023-02-19T08:48:00.245Z,50.58
2023-02-19T08:53:07.866Z,50.44
2023-02-19T08:58:13.237Z,50.32
2023-02-19T09:03:18.606Z,49.93
2023-02-19T09:08:24.097Z,50.18
2023-02-19T09:13:29.487Z,50.26
2023-02-19T09:18:34.934Z,49.33
2023-02-19T09:23:40.292Z,50.40
2023-02-19T09:28:45.592Z,49.88
2023-02-19T09:33:51.231Z,50.43
2023-02-19T09:38:56.496Z,49.80
2023-02-19T09:44:04.643Z,50.06
2023-02-19T09:49:39.634Z,50.76
2023-02-19T09:54:47.304Z,50.74
2023-02-19T10:00:23.076Z,50.40
2023-02-19T10:05:28.782Z,50.40
2023-02-19T10:10:37.368Z,51.09
2023-02-19T10:15:50.709Z,51.10
2023-02-19T10:20:57.491Z,51.78
2023-02-19T10:26:02.932Z,52.15
2023-02-19T10:31:21.104Z,52.10
2023-02-19T10:36:40.966Z,52.09
2023-02-19T10:41:46.762Z,52.38
2023-02-19T10:46:55.768Z,52.76
2023-02-19T10:52:21.828Z,52.74
2023-02-19T10:57:38.422Z,52.60
2023-02-19T11:02:44.943Z,53.24
2023-02-19T11:07:54.100Z,52.66
2023-02-19T11:13:02.466Z,52.56
2023-02-19T11:18:15.608Z,52.11
2023-02-19T11:23:38.159Z,52.17
2023-02-19T11:28:44.932Z,52.50
2023-02-19T11:34:02.478Z,52.60
2023-02-19T11:39:17.718Z,51.76
2023-02-19T11:44:42.075Z,51.36
2023-02-19T11:50:11.117Z,51.86
2023-02-19T11:55:32.455Z,51.22
2023-02-19T12:00:56.057Z,51.34
2023-02-19T12:06:34.874Z,51.00
2023-02-19T12:11:56.116Z,50.71
2023-02-19T12:17:04.918Z,48.79
2023-02-19T12:22:33.330Z,48.27
2023-02-19T12:28:25.321Z,47.99
2023-02-19T12:34:03.964Z,48.37
2023-02-19T12:39:09.333Z,48.55
2023-02-19T12:44:31.840Z,50.21
2023-02-19T12:49:51.454Z,50.30
2023-02-19T12:55:20.943Z,50.59
2023-02-19T13:00:37.614Z,51.30
2023-02-19T13:05:59.231Z,51.56
2023-02-19T13:11:16.052Z,51.30
2023-02-19T13:16:24.025Z,52.07
2023-02-19T13:21:56.758Z,51.29
2023-02-19T13:33:00.159Z,50.60
2023-02-19T13:38:08.127Z,51.84
2023-02-19T13:43:37.256Z,51.86
2023-02-19T13:48:45.010Z,52.44
2023-02-19T13:53:53.074Z,52.67
2023-02-19T13:59:02.016Z,52.73
2023-02-19T14:04:24.682Z,52.89
2023-02-19T14:09:41.925Z,52.48
2023-02-19T14:14:52.587Z,53.75
2023-02-19T14:20:03.188Z,53.28
2023-02-19T14:25:39.660Z,54.08
2023-02-19T14:30:52.736Z,54.52
2023-02-19T14:36:25.630Z,53.98
2023-02-19T14:41:34.909Z,54.52
2023-02-19T14:46:49.816Z,54.35
2023-02-19T14:52:06.047Z,54.70
2023-02-19T14:57:21.331Z,54.35
2023-02-19T15:02:28.490Z,54.29
2023-02-19T15:07:34.876Z,54.19
2023-02-19T15:12:51.822Z,54.38
2023-02-19T15:17:59.616Z,54.80
2023-02-19T15:23:09.099Z,54.74
2023-02-19T15:28:34.096Z,54.77
2023-02-19T15:33:39.634Z,54.18
2023-02-19T15:38:45.468Z,55.17
2023-02-19T15:44:01.522Z,55.03
2023-02-19T15:49:46.209Z,54.86
2023-02-19T15:55:16.389Z,54.12
2023-02-19T16:00:46.779Z,54.52
2023-02-19T16:06:16.970Z,54.17
2023-02-19T16:11:54.432Z,54.72
2023-02-19T16:22:48.960Z,55.90
2023-02-19T16:27:55.193Z,55.22
2023-02-19T16:33:37.932Z,56.06
2023-02-19T16:39:33.002Z,55.73
2023-02-19T16:44:38.367Z,56.20
2023-02-19T16:49:44.782Z,55.47
2023-02-19T16:54:50.362Z,55.04
2023-02-19T16:59:55.668Z,54.99
2023-02-19T17:05:01.380Z,54.20
2023-02-19T17:10:08.288Z,54.48
2023-02-19T17:15:13.927Z,52.83
2023-02-19T17:20:24.848Z,53.39
2023-02-19T17:25:30.309Z,53.85
2023-02-19T17:30:36.171Z,54.41
2023-02-19T17:35:45.006Z,53.67
2023-02-19T17:40:50.226Z,54.04
2023-02-19T17:45:55.573Z,55.16
2023-02-19T17:51:00.874Z,54.04
2023-02-19T17:56:06.623Z,53.62
2023-02-19T18:01:12.710Z,53.44
2023-02-19T18:06:18.487Z,54.11
2023-02-19T18:11:24.524Z,54.00
2023-02-19T18:16:29.988Z,54.25
2023-02-19T18:21:35.601Z,54.56
2023-02-19T18:26:41.724Z,54.40
2023-02-19T18:31:47.253Z,54.66
2023-02-19T18:36:52.931Z,54.39
2023-02-19T18:41:58.881Z,54.18
2023-02-19T18:47:04.823Z,54.11
2023-02-19T18:52:10.244Z,54.58
2023-02-19T18:57:16.441Z,55.16
2023-02-19T19:02:22.405Z,55.19
2023-02-19T19:07:27.766Z,54.05
2023-02-19T19:12:33.353Z,55.05
2023-02-19T19:17:39.725Z,56.28
2023-02-19T19:22:45.133Z,54.75
2023-02-19T19:27:53.925Z,53.76
2023-02-19T19:33:01.569Z,55.32
2023-02-19T19:38:07.190Z,54.20
2023-02-19T19:43:13.505Z,54.03
2023-02-19T19:48:18.442Z,55.17
2023-02-19T19:53:25.234Z,55.02
2023-02-19T19:58:30.839Z,54.56
2023-02-19T20:03:36.375Z,54.92
2023-02-19T20:08:41.639Z,54.57
2023-02-19T20:13:47.076Z,54.52
2023-02-19T20:18:52.350Z,54.91
2023-02-19T20:23:57.630Z,54.61
2023-02-19T20:29:04.843Z,55.61
2023-02-19T20:34:10.402Z,55.63
2023-02-19T20:39:20.659Z,55.87
2023-02-19T20:44:27.905Z,55.42
2023-02-19T20:49:34.811Z,55.69
2023-02-19T20:54:41.160Z,56.40
2023-02-19T20:59:47.414Z,55.60
2023-02-19T21:04:52.634Z,56.00
2023-02-19T21:09:57.928Z,56.17
2023-02-19T21:15:03.441Z,56.33
2023-02-19T21:20:09.970Z,56.02
2023-02-19T21:25:15.135Z,55.96
2023-02-19T21:30:20.733Z,56.64
2023-02-19T21:35:26.086Z,55.22
2023-02-19T21:40:32.561Z,55.68
2023-02-19T21:45:37.995Z,56.00
2023-02-19T21:50:46.191Z,55.34
2023-02-19T21:55:58.727Z,55.56
2023-02-19T22:01:05.996Z,55.40
2023-02-19T22:06:11.667Z,55.95
2023-02-19T22:11:17.197Z,55.58
2023-02-19T22:16:22.774Z,55.98
2023-02-19T22:21:32.925Z,55.89
2023-02-19T22:26:38.253Z,55.90
2023-02-19T22:31:43.815Z,54.91
2023-02-19T22:36:50.047Z,56.06
2023-02-19T22:41:55.440Z,55.38
2023-02-19T22:47:01.081Z,55.27
2023-02-19T22:52:10.727Z,56.53
2023-02-19T22:57:16.062Z,55.83
2023-02-19T23:02:21.484Z,55.67
2023-02-19T23:07:26.960Z,55.20
2023-02-19T23:12:32.289Z,55.90
2023-02-19T23:17:37.582Z,56.48
2023-02-19T23:22:44.115Z,56.51
2023-02-19T23:27:49.545Z,55.93
2023-02-19T23:32:55.004Z,55.91
2023-02-19T23:38:01.468Z,55.88
2023-02-19T23:43:06.862Z,56.56
2023-02-19T23:48:12.280Z,57.00
2023-02-19T23:53:17.751Z,55.47
2023-02-19T23:58:23.088Z,55.00
